Time;durP1;ratioP1;P1;durP2;ratioP2;P2;SDS_P1;SDS_P2;PMS_P1;PMS_P2;Temp;Humidity;BMP_temperature;BMP_pressure;BME280_temperature;BME280_humidity;BME280_pressure;Samples;Min_cycle;Max_cycle;Signal;HPM_P1;HPM_P2
2022/07/03 00:00:06;;;;;;;;;;;23.20;88.00;23.30;99797.00;;;;345109;28;91060;-90
2022/07/03 00:00:18;;;;;;;;;;;23.20;87.80;23.30;99795.00;;;;345470;28;92589;-90
2022/07/03 00:00:29;;;;;;;;;;;23.20;88.30;23.20;99799.00;;;;346541;28;91303;-90
2022/07/03 00:00:42;;;;;;;;;;;23.20;88.80;23.20;99792.00;;;;347019;28;91912;-90
2022/07/03 00:00:53;;;;;;;;;;;23.20;88.80;23.20;99792.00;;;;345078;28;91277;-90
2022/07/03 00:01:06;;;;;;;;;;;23.20;89.60;23.20;99793.00;;;;346546;28;95524;-90
2022/07/03 00:01:18;;;;;;;;;;;23.20;89.40;23.20;99792.00;;;;346543;28;91946;-90
2022/07/03 00:01:30;;;;;;;;;;;23.20;89.60;23.20;99802.00;;;;344618;28;94511;-88
2022/07/03 00:01:42;;;;;;;;;;;23.20;89.80;23.20;99791.00;;;;344811;28;91436;-90
2022/07/03 00:01:53;;;;;;;;;;;23.20;88.90;23.20;99796.00;;;;347986;28;91823;-90
2022/07/03 00:02:05;;;;;;;;;;;23.20;88.80;23.20;99796.00;;;;346347;28;91805;-90
2022/07/03 00:02:17;;;;;;;;;;;23.20;89.20;23.30;99794.00;;;;345256;28;92907;-90
2022/07/03 00:02:29;;;;;;;;;;;23.20;89.00;23.20;99797.00;;;;343749;28;91893;-89
2022/07/03 00:02:41;;;;;;;;;;;23.20;88.60;23.20;99794.00;;;;345113;28;94509;-90
2022/07/03 00:02:53;;;;;;;;;;;23.20;88.50;23.30;99801.00;;;;345036;28;92043;-90
2022/07/03 00:03:05;;;;;;;;;;;23.20;88.20;23.30;99805.00;;;;348002;28;93379;-91
2022/07/03 00:03:17;;;;;;;;;;;23.20;88.30;23.30;99805.00;;;;347989;28;90904;-90
2022/07/03 00:03:28;;;;;;;;;;;23.20;88.20;23.40;99792.00;;;;346564;28;94008;-89
2022/07/03 00:03:40;;;;;;;;;;;23.20;88.60;23.30;99802.00;;;;346470;28;90542;-90
2022/07/03 00:03:52;;;;;;;;;;;23.20;89.00;23.30;99798.00;;;;346779;28;91868;-90
2022/07/03 00:04:04;;;;;;;;;;;23.20;88.80;23.30;99803.00;;;;346421;28;91825;-90
2022/07/03 00:04:18;;;;;;;;;;;23.20;88.50;23.30;99800.00;;;;346770;28;94065;-90
2022/07/03 00:04:30;;;;;;;;;;;23.20;89.00;23.30;99796.00;;;;343314;28;91928;-90
2022/07/03 00:04:42;;;;;;;;;;;23.20;89.40;23.20;99800.00;;;;345192;28;91374;-90
2022/07/03 00:04:54;;;;;;;;;;;23.20;89.00;23.30;99791.00;;;;346233;28;91314;-89
2022/07/03 00:05:06;;;;;;;;;;;23.20;89.10;23.20;99792.00;;;;346391;28;93684;-90
2022/07/03 00:05:18;;;;;;;;;;;23.20;90.40;23.20;99795.00;;;;344775;28;92050;-90
2022/07/03 00:05:30;;;;;;;;;;;23.20;90.20;23.20;99786.00;;;;345277;28;92268;-90
2022/07/03 00:05:42;;;;;;;;;;;23.20;89.80;23.20;99798.00;;;;343387;28;90479;-90
2022/07/03 00:05:53;;;;;;;;;;;23.20;89.70;23.20;99797.00;;;;344990;28;94649;-90
2022/07/03 00:06:05;;;;;;;;;;;23.20;89.60;23.30;99792.00;;;;346368;28;91106;-91
2022/07/03 00:06:17;;;;;;;;;;;23.20;89.40;23.30;99794.00;;;;347654;28;92496;-90
2022/07/03 00:06:30;;;;;;;;;;;23.20;89.30;23.30;99800.00;;;;345844;28;90994;-90
2022/07/03 00:06:42;;;;;;;;;;;23.20;89.10;23.30;99800.00;;;;341415;28;93098;-91
2022/07/03 00:06:54;;;;;;;;;;;23.20;89.00;23.20;99796.00;;;;344124;28;92176;-88
2022/07/03 00:07:06;;;;;;;;;;;23.20;89.60;23.20;99794.00;;;;344607;28;93104;-90
2022/07/03 00:07:18;;;;;;;;;;;23.20;89.60;23.20;99795.00;;;;344142;28;92096;-90
2022/07/03 00:07:30;;;;;;;;;;;23.20;90.00;23.20;99791.00;;;;343220;28;92664;-90
2022/07/03 00:07:42;;;;;;;;;;;23.10;89.90;23.10;99787.00;;;;343927;28;91432;-90
2022/07/03 00:07:53;;;;;;;;;;;23.20;90.40;23.10;99789.00;;;;341844;28;93105;-90
2022/07/03 00:08:05;;;;;;;;;;;23.10;90.40;23.20;99788.00;;;;342950;28;92466;-90
2022/07/03 00:08:17;;;;;;;;;;;23.10;90.00;23.10;99793.00;;;;343174;28;93774;-90
2022/07/03 00:08:29;;;;;;;;;;;23.10;90.30;23.20;99790.00;;;;342895;28;92085;-90
2022/07/03 00:08:41;;;;;;;;;;;23.10;90.10;23.20;99790.00;;;;343121;28;93044;-89
2022/07/03 00:08:53;;;;;;;;;;;23.10;89.80;23.30;99796.00;;;;344326;28;91907;-90
2022/07/03 00:09:05;;;;;;;;;;;23.10;89.60;23.30;99793.00;;;;343180;28;92249;-90
2022/07/03 00:09:16;;;;;;;;;;;23.10;89.90;23.30;99793.00;;;;344134;28;91171;-90
2022/07/03 00:09:28;;;;;;;;;;;23.10;89.50;23.20;99797.00;;;;344408;28;93771;-91
2022/07/03 00:09:40;;;;;;;;;;;23.10;90.00;23.20;99796.00;;;;344256;28;91130;-90
2022/07/03 00:09:52;;;;;;;;;;;23.10;90.10;23.10;99798.00;;;;343221;28;93106;-90
2022/07/03 00:10:04;;;;;;;;;;;23.10;90.10;23.10;99785.00;;;;344269;28;91932;-90
2022/07/03 00:10:16;;;;;;;;;;;23.10;90.10;23.20;99791.00;;;;345716;28;95614;-90
2022/07/03 00:10:28;;;;;;;;;;;23.10;90.20;23.20;99790.00;;;;344241;28;92013;-90
2022/07/03 00:10:40;;;;;;;;;;;23.10;90.10;23.20;99793.00;;;;342723;28;93796;-90
2022/07/03 00:10:52;;;;;;;;;;;23.10;89.90;23.20;99788.00;;;;342405;28;92078;-91
2022/07/03 00:11:04;;;;;;;;;;;23.10;89.40;23.20;99791.00;;;;341880;28;92202;-89
2022/07/03 00:11:16;;;;;;;;;;;23.10;89.70;23.20;99782.00;;;;344224;28;91828;-90
2022/07/03 00:11:28;;;;;;;;;;;23.10;90.10;23.20;99794.00;;;;343163;28;93792;-90
2022/07/03 00:11:40;;;;;;;;;;;23.10;90.10;23.20;99789.00;;;;344438;28;91362;-91
2022/07/03 00:11:52;;;;;;;;;;;23.10;89.90;23.10;99789.00;;;;344582;28;92706;-90
2022/07/03 00:12:04;;;;;;;;;;;23.10;90.10;23.10;99788.00;;;;345703;28;91134;-90
2022/07/03 00:12:16;;;;;;;;;;;23.10;90.30;23.10;99788.00;;;;343309;28;93586;-90
2022/07/03 00:12:28;;;;;;;;;;;23.10;90.20;23.10;99794.00;;;;342801;28;91982;-90
2022/07/03 00:12:39;;;;;;;;;;;23.10;90.20;23.10;99787.00;;;;344495;28;93863;-90
2022/07/03 00:12:51;;;;;;;;;;;23.10;90.20;23.10;99792.00;;;;344063;28;92187;-91
2022/07/03 00:13:04;;;;;;;;;;;23.10;90.10;23.10;99797.00;;;;344487;28;92974;-91
2022/07/03 00:13:16;;;;;;;;;;;23.10;90.00;23.20;99788.00;;;;344096;28;91840;-90
2022/07/03 00:13:28;;;;;;;;;;;23.10;89.70;23.20;99788.00;;;;344558;28;90865;-90
2022/07/03 00:13:40;;;;;;;;;;;23.10;89.40;23.20;99792.00;;;;346645;28;90615;-90
2022/07/03 00:13:52;;;;;;;;;;;23.10;89.40;23.20;99790.00;;;;344402;28;91389;-90
2022/07/03 00:14:04;;;;;;;;;;;23.10;89.40;23.20;99780.00;;;;345251;28;91974;-90
2022/07/03 00:14:15;;;;;;;;;;;23.10;89.10;23.10;99788.00;;;;344496;28;93429;-90
2022/07/03 00:14:27;;;;;;;;;;;23.00;89.10;23.10;99788.00;;;;345600;28;91916;-90
2022/07/03 00:14:39;;;;;;;;;;;23.10;90.10;23.10;99787.00;;;;343685;28;96458;-90
2022/07/03 00:14:51;;;;;;;;;;;23.10;89.80;23.10;99789.00;;;;344154;28;92028;-90
2022/07/03 00:15:03;;;;;;;;;;;23.10;89.30;23.10;99794.00;;;;343037;28;94073;-90
2022/07/03 00:15:15;;;;;;;;;;;23.10;89.40;23.10;99789.00;;;;345573;28;91942;-90
2022/07/03 00:15:27;;;;;;;;;;;23.00;89.80;23.20;99792.00;;;;344260;28;94509;-90
2022/07/03 00:15:39;;;;;;;;;;;23.10;89.40;23.20;99788.00;;;;342909;28;91740;-90
2022/07/03 00:15:50;;;;;;;;;;;23.00;89.70;23.20;99791.00;;;;343126;28;93053;-90
2022/07/03 00:16:02;;;;;;;;;;;23.10;90.00;23.10;99791.00;;;;342446;28;92063;-90
2022/07/03 00:16:14;;;;;;;;;;;23.10;90.20;23.10;99792.00;;;;343930;28;92932;-89
2022/07/03 00:16:26;;;;;;;;;;;23.10;90.10;23.10;99791.00;;;;342845;28;91142;-90
2022/07/03 00:16:38;;;;;;;;;;;23.10;90.30;23.10;99788.00;;;;344044;28;90765;-90
2022/07/03 00:16:50;;;;;;;;;;;23.10;90.40;23.00;99788.00;;;;346547;28;92291;-91
2022/07/03 00:17:02;;;;;;;;;;;23.10;90.40;23.00;99790.00;;;;345704;28;93894;-90
2022/07/03 00:17:14;;;;;;;;;;;23.00;90.80;23.00;99788.00;;;;344376;28;91039;-90
2022/07/03 00:17:26;;;;;;;;;;;23.00;90.80;23.00;99789.00;;;;344397;28;95758;-90
2022/07/03 00:17:38;;;;;;;;;;;23.00;90.50;23.00;99787.00;;;;344709;28;90508;-91
2022/07/03 00:17:49;;;;;;;;;;;23.00;90.30;23.00;99792.00;;;;345888;28;93193;-91
2022/07/03 00:18:01;;;;;;;;;;;23.00;90.40;23.00;99787.00;;;;345743;28;90973;-91
2022/07/03 00:18:13;;;;;;;;;;;23.00;90.20;23.00;99791.00;;;;345771;28;91978;-90
2022/07/03 00:18:25;;;;;;;;;;;23.00;90.00;23.00;99783.00;;;;342752;28;92116;-90
2022/07/03 00:18:37;;;;;;;;;;;23.00;90.10;23.00;99790.00;;;;344436;28;93669;-90
2022/07/03 00:18:49;;;;;;;;;;;23.00;90.10;23.00;99788.00;;;;344027;28;92162;-91
2022/07/03 00:19:01;;;;;;;;;;;23.00;89.90;23.10;99787.00;;;;344458;28;93786;-90
2022/07/03 00:19:13;;;;;;;;;;;23.00;90.00;23.00;99787.00;;;;344280;28;91954;-90
2022/07/03 00:19:25;;;;;;;;;;;23.00;90.00;23.10;99791.00;;;;343150;28;93978;-90
2022/07/03 00:19:37;;;;;;;;;;;23.00;90.10;23.20;99780.00;;;;342380;28;91564;-90
2022/07/03 00:19:49;;;;;;;;;;;23.00;90.10;23.10;99788.00;;;;344289;28;95708;-89
2022/07/03 00:20:01;;;;;;;;;;;23.00;90.20;23.20;99786.00;;;;345623;28;91046;-89
2022/07/03 00:20:15;;;;;;;;;;;23.00;90.20;23.20;99786.00;;;;345925;28;93385;-90
2022/07/03 00:20:28;;;;;;;;;;;23.00;90.20;23.10;99788.00;;;;345343;28;91274;-90
2022/07/03 00:20:45;;;;;;;;;;;23.00;90.00;23.20;99786.00;;;;345767;28;93173;-90
2022/07/03 00:21:03;;;;;;;;;;;23.00;90.00;23.20;99792.00;;;;343911;28;92624;-90
2022/07/03 00:21:20;;;;;;;;;;;23.00;90.00;23.20;99790.00;;;;342589;28;92681;-90
2022/07/03 00:21:48;;;;;;;;;;;23.00;90.00;23.10;99796.00;;;;342975;28;91943;-91
2022/07/03 00:22:04;;;;;;;;;;;23.00;90.00;23.00;99789.00;;;;344506;28;94041;-89
2022/07/03 00:22:16;;;;;;;;;;;23.00;90.50;23.00;99792.00;;;;343005;28;91189;-90
2022/07/03 00:22:27;;;;;;;;;;;23.00;90.60;23.00;99792.00;;;;341767;28;93437;-90
2022/07/03 00:22:42;;;;;;;;;;;23.00;90.50;23.00;99790.00;;;;344923;28;92403;-90
2022/07/03 00:22:54;;;;;;;;;;;23.00;90.70;23.00;99787.00;;;;345790;28;93008;-89
2022/07/03 00:23:08;;;;;;;;;;;23.00;90.50;23.00;99792.00;;;;346605;28;92009;-90
2022/07/03 00:23:21;;;;;;;;;;;23.00;90.60;23.00;99791.00;;;;345946;28;93990;-90
2022/07/03 00:24:03;;;;;;;;;;;23.00;90.80;23.00;99793.00;;;;344061;28;91999;-90
2022/07/03 00:24:37;;;;;;;;;;;23.00;91.10;23.00;99786.00;;;;337830;28;93962;-90
2022/07/03 00:24:51;;;;;;;;;;;22.90;90.20;23.00;99789.00;;;;342887;28;91983;-90
2022/07/03 00:25:05;;;;;;;;;;;22.90;90.40;23.00;99790.00;;;;343103;28;92561;-90
2022/07/03 00:25:16;;;;;;;;;;;22.90;90.20;23.00;99788.00;;;;341341;28;91370;-91
2022/07/03 00:25:28;;;;;;;;;;;22.90;90.10;23.00;99789.00;;;;341873;28;91969;-90
2022/07/03 00:25:40;;;;;;;;;;;23.00;90.20;23.00;99793.00;;;;343474;28;92179;-90
2022/07/03 00:25:52;;;;;;;;;;;22.90;90.40;22.90;99788.00;;;;343870;28;92859;-90
2022/07/03 00:26:03;;;;;;;;;;;22.90;90.60;23.00;99792.00;;;;343305;28;91837;-91
2022/07/03 00:26:15;;;;;;;;;;;22.90;90.50;23.00;99793.00;;;;344539;28;92644;-90
2022/07/03 00:26:27;;;;;;;;;;;22.90;90.30;23.00;99787.00;;;;342896;28;91970;-90
2022/07/03 00:26:39;;;;;;;;;;;22.90;90.30;23.00;99790.00;;;;343942;28;91138;-91
2022/07/03 00:26:52;;;;;;;;;;;22.90;90.30;23.00;99789.00;;;;344207;28;92023;-90
2022/07/03 00:27:04;;;;;;;;;;;22.90;90.30;23.00;99791.00;;;;343972;28;92924;-90
2022/07/03 00:27:16;;;;;;;;;;;22.90;90.40;23.00;99787.00;;;;345680;28;91158;-91
2022/07/03 00:27:28;;;;;;;;;;;22.90;90.40;23.00;99789.00;;;;345866;28;93239;-90
2022/07/03 00:27:40;;;;;;;;;;;22.90;90.50;22.90;99798.00;;;;345435;28;91855;-91
2022/07/03 00:27:51;;;;;;;;;;;22.90;90.70;22.90;99794.00;;;;345608;28;93709;-90
2022/07/03 00:28:03;;;;;;;;;;;22.90;90.80;22.90;99796.00;;;;344268;28;91748;-91
2022/07/03 00:28:15;;;;;;;;;;;22.90;90.80;22.90;99795.00;;;;344424;28;94006;-90
2022/07/03 00:28:27;;;;;;;;;;;22.90;90.90;22.90;99790.00;;;;341543;28;91212;-91
2022/07/03 00:28:41;;;;;;;;;;;22.90;90.90;22.80;99793.00;;;;343356;28;93834;-91
2022/07/03 00:28:54;;;;;;;;;;;22.90;91.20;22.80;99796.00;;;;343650;28;91126;-91
2022/07/03 00:29:07;;;;;;;;;;;22.80;91.10;22.80;99794.00;;;;345784;28;93869;-90
2022/07/03 00:29:22;;;;;;;;;;;22.80;91.10;22.80;99790.00;;;;344130;28;91422;-90
2022/07/03 00:29:39;;;;;;;;;;;22.80;91.20;22.80;99802.00;;;;345461;28;92200;-89
2022/07/03 00:29:50;;;;;;;;;;;22.80;91.10;22.80;99789.00;;;;342567;28;91942;-90
2022/07/03 00:30:03;;;;;;;;;;;22.80;91.00;22.80;99791.00;;;;345619;28;93489;-90
2022/07/03 00:30:14;;;;;;;;;;;22.80;91.10;22.70;99788.00;;;;344310;28;91091;-90
2022/07/03 00:30:26;;;;;;;;;;;22.80;91.10;22.80;99794.00;;;;342675;28;92692;-91
2022/07/03 00:30:38;;;;;;;;;;;22.80;90.80;22.80;99795.00;;;;344271;28;91748;-90
2022/07/03 00:30:50;;;;;;;;;;;22.80;90.70;22.90;99796.00;;;;344406;28;92610;-91
2022/07/03 00:31:02;;;;;;;;;;;22.80;90.70;22.90;99791.00;;;;345208;28;92134;-90
2022/07/03 00:31:13;;;;;;;;;;;22.80;90.60;22.90;99795.00;;;;344250;28;94329;-91
2022/07/03 00:31:25;;;;;;;;;;;22.80;90.60;23.00;99792.00;;;;343060;28;90158;-90
2022/07/03 00:31:37;;;;;;;;;;;22.80;90.60;22.80;99798.00;;;;345328;28;93289;-90
2022/07/03 00:31:49;;;;;;;;;;;22.80;91.40;22.90;99792.00;;;;343456;28;91100;-90
2022/07/03 00:32:01;;;;;;;;;;;22.80;90.90;22.80;99792.00;;;;344303;28;93807;-90
2022/07/03 00:32:13;;;;;;;;;;;22.80;91.10;22.80;99793.00;;;;346409;28;91108;-91
2022/07/03 00:32:26;;;;;;;;;;;22.80;91.10;22.80;99791.00;;;;343110;28;92474;-91
2022/07/03 00:32:38;;;;;;;;;;;22.80;91.30;22.70;99791.00;;;;342946;28;91777;-91
2022/07/03 00:32:50;;;;;;;;;;;22.80;91.30;22.80;99809.00;;;;344483;28;93695;-91
2022/07/03 00:33:03;;;;;;;;;;;22.80;90.90;22.80;99794.00;;;;344186;28;91997;-90
2022/07/03 00:33:15;;;;;;;;;;;22.80;91.00;22.70;99797.00;;;;344397;28;93568;-90
2022/07/03 00:33:27;;;;;;;;;;;22.80;91.20;22.70;99798.00;;;;344319;28;91277;-91
2022/07/03 00:33:39;;;;;;;;;;;22.80;91.30;22.70;99797.00;;;;345760;28;93518;-90
2022/07/03 00:33:51;;;;;;;;;;;22.80;91.60;22.70;99793.00;;;;345580;28;92706;-90
2022/07/03 00:34:03;;;;;;;;;;;22.70;91.40;22.70;99794.00;;;;345789;28;93574;-91
2022/07/03 00:34:15;;;;;;;;;;;22.70;91.40;22.70;99799.00;;;;345593;28;91986;-89
2022/07/03 00:34:27;;;;;;;;;;;22.70;91.40;22.70;99788.00;;;;344522;28;92104;-90
2022/07/03 00:34:39;;;;;;;;;;;22.70;91.30;22.70;99800.00;;;;341874;28;92199;-91
2022/07/03 00:34:53;;;;;;;;;;;22.70;91.00;22.80;99796.00;;;;343461;28;93573;-90
2022/07/03 00:35:05;;;;;;;;;;;22.70;91.00;22.70;99798.00;;;;342730;28;92021;-90
2022/07/03 00:35:17;;;;;;;;;;;22.70;91.10;22.70;99791.00;;;;343048;28;93626;-90
2022/07/03 00:35:34;;;;;;;;;;;22.70;90.90;22.70;99796.00;;;;344128;28;91193;-90
2022/07/03 00:35:46;;;;;;;;;;;22.70;90.80;22.80;99794.00;;;;344451;28;91372;-91
2022/07/03 00:35:57;;;;;;;;;;;22.70;90.80;22.80;99802.00;;;;342833;28;91957;-91
2022/07/03 00:36:09;;;;;;;;;;;22.70;90.70;22.80;99805.00;;;;344476;28;94183;-90
2022/07/03 00:36:21;;;;;;;;;;;22.70;90.80;22.80;99797.00;;;;344189;28;91035;-91
2022/07/03 00:36:34;;;;;;;;;;;22.70;90.90;22.80;99799.00;;;;341748;28;93762;-90
2022/07/03 00:36:47;;;;;;;;;;;22.70;91.00;22.80;99791.00;;;;344252;28;91897;-90
2022/07/03 00:37:00;;;;;;;;;;;22.70;90.90;22.80;99796.00;;;;345556;28;94728;-90
2022/07/03 00:37:17;;;;;;;;;;;22.70;90.90;22.80;99799.00;;;;344032;28;91302;-90
2022/07/03 00:37:29;;;;;;;;;;;22.70;90.80;22.80;99801.00;;;;344479;28;93948;-90
2022/07/03 00:37:41;;;;;;;;;;;22.70;90.90;22.80;99792.00;;;;343873;28;90403;-91
2022/07/03 00:37:53;;;;;;;;;;;22.70;90.90;22.80;99798.00;;;;344446;28;91090;-91
2022/07/03 00:38:05;;;;;;;;;;;22.70;91.10;22.80;99791.00;;;;344574;28;91042;-91
2022/07/03 00:38:16;;;;;;;;;;;22.70;91.30;22.80;99793.00;;;;344216;28;92602;-91
2022/07/03 00:38:28;;;;;;;;;;;22.70;91.10;22.90;99806.00;;;;343808;28;91148;-91
2022/07/03 00:38:40;;;;;;;;;;;22.70;90.90;22.80;99794.00;;;;343150;28;93988;-90
2022/07/03 00:38:52;;;;;;;;;;;22.70;91.20;22.80;99798.00;;;;342612;28;91914;-91
2022/07/03 00:39:04;;;;;;;;;;;22.70;91.30;22.70;99797.00;;;;341636;28;94088;-91
2022/07/03 00:39:16;;;;;;;;;;;22.70;91.30;22.70;99797.00;;;;342753;28;91220;-90
2022/07/03 00:39:28;;;;;;;;;;;22.70;91.50;22.70;99794.00;;;;344566;28;93786;-90
2022/07/03 00:39:40;;;;;;;;;;;22.70;91.30;22.70;99795.00;;;;344319;28;90398;-90
2022/07/03 00:39:52;;;;;;;;;;;22.70;91.20;22.70;99798.00;;;;344158;28;91857;-90
2022/07/03 00:40:06;;;;;;;;;;;22.70;91.50;22.70;99808.00;;;;344261;28;91832;-90
2022/07/03 00:40:18;;;;;;;;;;;22.70;91.50;22.60;99805.00;;;;344482;28;92511;-91
2022/07/03 00:40:30;;;;;;;;;;;22.70;91.70;22.70;99801.00;;;;345423;28;91933;-90
2022/07/03 00:40:43;;;;;;;;;;;22.70;91.60;22.60;99803.00;;;;345674;28;94066;-90
2022/07/03 00:40:55;;;;;;;;;;;22.60;91.50;22.70;99793.00;;;;344210;28;91726;-90
2022/07/03 00:41:06;;;;;;;;;;;22.70;91.30;22.70;99799.00;;;;342978;28;92804;-91
2022/07/03 00:41:26;;;;;;;;;;;22.60;91.20;22.60;99806.00;;;;344241;28;91948;-90
2022/07/03 00:41:38;;;;;;;;;;;22.70;91.40;22.60;99802.00;;;;344867;28;94609;-90
2022/07/03 00:42:00;;;;;;;;;;;22.70;91.60;22.70;99798.00;;;;344283;28;91257;-90
2022/07/03 00:42:12;;;;;;;;;;;22.70;91.20;22.70;99800.00;;;;342824;28;93074;-91
2022/07/03 00:42:23;;;;;;;;;;;22.70;91.10;22.70;99799.00;;;;342839;28;91250;-90
2022/07/03 00:42:39;;;;;;;;;;;22.70;91.30;22.70;99797.00;;;;343094;28;92787;-90
2022/07/03 00:42:51;;;;;;;;;;;22.60;91.20;22.70;99800.00;;;;341558;28;91086;-91
2022/07/03 00:43:03;;;;;;;;;;;22.60;91.50;22.60;99802.00;;;;343019;28;93468;-91
2022/07/03 00:43:15;;;;;;;;;;;22.60;91.90;22.60;99807.00;;;;345719;28;91822;-90
2022/07/03 00:43:27;;;;;;;;;;;22.60;91.80;22.60;99803.00;;;;342699;28;92645;-90
2022/07/03 00:43:39;;;;;;;;;;;22.60;92.00;22.60;99803.00;;;;343777;28;91982;-91
2022/07/03 00:43:51;;;;;;;;;;;22.60;91.90;22.70;99801.00;;;;344548;28;93447;-91
2022/07/03 00:44:03;;;;;;;;;;;22.60;91.70;22.70;99794.00;;;;343163;28;90352;-91
2022/07/03 00:44:14;;;;;;;;;;;22.60;91.60;22.70;99801.00;;;;343112;28;91956;-89
2022/07/03 00:44:28;;;;;;;;;;;22.60;91.40;22.70;99806.00;;;;344292;28;91193;-91
2022/07/03 00:44:45;;;;;;;;;;;22.60;91.50;22.70;99795.00;;;;343407;28;92446;-91
2022/07/03 00:44:57;;;;;;;;;;;22.60;91.60;22.70;99799.00;;;;343736;28;91873;-91
2022/07/03 00:45:09;;;;;;;;;;;22.60;91.50;22.70;99807.00;;;;345861;28;93754;-90
2022/07/03 00:45:21;;;;;;;;;;;22.60;91.70;22.60;99800.00;;;;344069;28;92054;-90
2022/07/03 00:45:33;;;;;;;;;;;22.60;91.90;22.70;99806.00;;;;343179;28;93655;-91
2022/07/03 00:45:46;;;;;;;;;;;22.60;91.70;22.70;99801.00;;;;345407;28;91980;-90
2022/07/03 00:46:06;;;;;;;;;;;22.60;91.60;22.70;99804.00;;;;345882;28;94029;-91
2022/07/03 00:46:18;;;;;;;;;;;22.60;91.60;22.80;99798.00;;;;344247;28;90395;-90
2022/07/03 00:46:31;;;;;;;;;;;22.60;91.40;22.60;99804.00;;;;344547;28;91385;-90
2022/07/03 00:46:43;;;;;;;;;;;22.60;91.60;22.60;99809.00;;;;343739;28;91140;-91
2022/07/03 00:46:55;;;;;;;;;;;22.60;91.70;22.60;99806.00;;;;344231;28;94697;-90
2022/07/03 00:47:07;;;;;;;;;;;22.60;91.70;22.70;99809.00;;;;343626;28;91104;-91
2022/07/03 00:47:21;;;;;;;;;;;22.60;91.40;22.70;99800.00;;;;342755;28;93879;-90
2022/07/03 00:47:35;;;;;;;;;;;22.60;91.40;22.70;99804.00;;;;342712;28;92096;-91
2022/07/03 00:47:48;;;;;;;;;;;22.60;91.50;22.70;99805.00;;;;345770;28;93963;-91
2022/07/03 00:47:59;;;;;;;;;;;22.60;91.30;22.70;99803.00;;;;346589;28;92009;-90
2022/07/03 00:48:11;;;;;;;;;;;22.60;91.30;22.70;99805.00;;;;345541;28;93578;-91
2022/07/03 00:48:23;;;;;;;;;;;22.60;91.40;22.70;99802.00;;;;345634;28;90328;-90
2022/07/03 00:48:36;;;;;;;;;;;22.60;91.30;22.70;99802.00;;;;343043;28;91838;-89
2022/07/03 00:48:48;;;;;;;;;;;22.60;91.50;22.70;99801.00;;;;342924;28;91896;-90
2022/07/03 00:49:00;;;;;;;;;;;22.60;91.50;22.70;99801.00;;;;341705;28;93775;-90
2022/07/03 00:49:12;;;;;;;;;;;22.60;91.60;22.60;99804.00;;;;342630;28;91970;-90
2022/07/03 00:49:24;;;;;;;;;;;22.60;91.80;22.60;99801.00;;;;344573;28;90902;-90
2022/07/03 00:49:35;;;;;;;;;;;22.50;91.80;22.70;99810.00;;;;343446;28;91222;-90
2022/07/03 00:49:50;;;;;;;;;;;22.60;91.60;22.80;99808.00;;;;343308;28;94600;-91
2022/07/03 00:50:06;;;;;;;;;;;22.60;91.60;22.80;99812.00;;;;343903;28;92124;-91
2022/07/03 00:50:18;;;;;;;;;;;22.60;91.70;22.70;99805.00;;;;345778;28;92718;-90
2022/07/03 00:50:34;;;;;;;;;;;22.60;92.10;22.70;99804.00;;;;343808;28;91367;-91
2022/07/03 00:50:47;;;;;;;;;;;22.60;92.00;22.70;99805.00;;;;344490;28;92233;-91
2022/07/03 00:50:59;;;;;;;;;;;22.60;91.70;22.60;99799.00;;;;343628;28;92052;-90
2022/07/03 00:51:13;;;;;;;;;;;22.60;91.50;22.60;99810.00;;;;344403;28;93631;-90
2022/07/03 00:51:26;;;;;;;;;;;22.60;92.20;22.60;99809.00;;;;345401;28;92160;-89
2022/07/03 00:51:40;;;;;;;;;;;22.60;92.00;22.60;99803.00;;;;344414;28;93907;-91
2022/07/03 00:51:52;;;;;;;;;;;22.50;91.90;22.60;99813.00;;;;343913;28;92610;-90
2022/07/03 00:52:05;;;;;;;;;;;22.50;91.80;22.60;99812.00;;;;344393;28;94321;-90
2022/07/03 00:52:17;;;;;;;;;;;22.60;91.70;22.60;99810.00;;;;342754;28;92147;-90
2022/07/03 00:52:30;;;;;;;;;;;22.50;92.00;22.60;99808.00;;;;344406;28;92728;-90
2022/07/03 00:52:46;;;;;;;;;;;22.50;91.80;22.60;99805.00;;;;344502;28;90453;-90
2022/07/03 00:52:58;;;;;;;;;;;22.50;91.50;22.60;99800.00;;;;344214;28;92961;-91
2022/07/03 00:53:09;;;;;;;;;;;22.50;91.50;22.60;99801.00;;;;343971;28;92116;-90
2022/07/03 00:53:28;;;;;;;;;;;22.50;91.60;22.60;99800.00;;;;344199;28;94932;-90
2022/07/03 00:53:41;;;;;;;;;;;22.50;91.60;22.60;99805.00;;;;343814;28;91985;-90
2022/07/03 00:53:56;;;;;;;;;;;22.50;91.80;22.60;99803.00;;;;344504;28;93996;-90
2022/07/03 00:54:09;;;;;;;;;;;22.50;91.70;22.60;99798.00;;;;344211;28;91996;-91
2022/07/03 00:54:21;;;;;;;;;;;22.50;92.00;22.60;99799.00;;;;345783;28;92687;-91
2022/07/03 00:54:34;;;;;;;;;;;22.50;92.20;22.60;99800.00;;;;345605;28;91853;-90
2022/07/03 00:54:56;;;;;;;;;;;22.50;91.90;22.60;99802.00;;;;345848;28;93938;-90
2022/07/03 00:55:10;;;;;;;;;;;22.50;92.00;22.60;99798.00;;;;344156;28;90462;-91
2022/07/03 00:55:22;;;;;;;;;;;22.50;91.60;22.50;99799.00;;;;344225;28;92546;-90
2022/07/03 00:55:33;;;;;;;;;;;22.50;91.70;22.50;99807.00;;;;343852;28;91269;-90
2022/07/03 00:55:47;;;;;;;;;;;22.50;91.80;22.60;99802.00;;;;342888;28;92537;-91
2022/07/03 00:55:59;;;;;;;;;;;22.50;91.70;22.60;99802.00;;;;341594;28;90961;-91
2022/07/03 00:56:13;;;;;;;;;;;22.50;91.50;22.60;99793.00;;;;343029;28;94139;-90
2022/07/03 00:56:26;;;;;;;;;;;22.50;91.60;22.60;99797.00;;;;342848;28;91714;-91
2022/07/03 00:56:39;;;;;;;;;;;22.50;91.60;22.60;99800.00;;;;343785;28;93705;-90
2022/07/03 00:56:52;;;;;;;;;;;22.50;91.60;22.60;99799.00;;;;344272;28;91830;-90
2022/07/03 00:57:04;;;;;;;;;;;22.50;91.70;22.60;99796.00;;;;344464;28;92113;-91
2022/07/03 00:57:16;;;;;;;;;;;22.50;91.80;22.60;99794.00;;;;341577;28;91315;-88
2022/07/03 00:57:29;;;;;;;;;;;22.50;91.80;22.60;99793.00;;;;344515;28;91736;-90
2022/07/03 00:57:44;;;;;;;;;;;22.50;91.80;22.60;99785.00;;;;343458;28;92179;-91
2022/07/03 00:57:56;;;;;;;;;;;22.50;91.80;22.60;99800.00;;;;344436;28;93931;-90
2022/07/03 00:58:08;;;;;;;;;;;22.50;91.90;22.70;99793.00;;;;344260;28;91954;-91
2022/07/03 00:58:19;;;;;;;;;;;22.50;92.10;22.70;99786.00;;;;345634;28;94683;-91
2022/07/03 00:58:33;;;;;;;;;;;22.50;92.40;22.60;99795.00;;;;343020;28;91735;-90
2022/07/03 00:58:45;;;;;;;;;;;22.50;92.40;22.70;99794.00;;;;345564;28;91890;-91
2022/07/03 00:58:59;;;;;;;;;;;22.50;92.30;22.60;99794.00;;;;344193;28;91947;-90
2022/07/03 00:59:11;;;;;;;;;;;22.50;92.30;22.50;99794.00;;;;345905;28;93771;-90
2022/07/03 00:59:23;;;;;;;;;;;22.50;92.50;22.50;99791.00;;;;344262;28;90358;-91
2022/07/03 00:59:34;;;;;;;;;;;22.50;92.50;22.50;99791.00;;;;342693;28;92072;-91
2022/07/03 00:59:46;;;;;;;;;;;22.50;92.40;22.50;99798.00;;;;344103;28;91926;-91
2022/07/03 00:59:58;;;;;;;;;;;22.50;92.40;22.50;99787.00;;;;343070;28;93724;-91
2022/07/03 01:00:11;;;;;;;;;;;22.50;92.50;22.40;99793.00;;;;342874;28;91899;-90
2022/07/03 01:00:23;;;;;;;;;;;22.50;92.60;22.40;99788.00;;;;342824;28;94733;-90
2022/07/03 01:00:39;;;;;;;;;;;22.50;92.60;22.40;99787.00;;;;345402;28;92031;-90
2022/07/03 01:00:51;;;;;;;;;;;22.50;92.50;22.40;99797.00;;;;345892;28;92947;-91
2022/07/03 01:01:04;;;;;;;;;;;22.40;92.50;22.40;99795.00;;;;346907;28;91946;-91
2022/07/03 01:01:16;;;;;;;;;;;22.40;92.50;22.30;99790.00;;;;347151;28;92360;-90
2022/07/03 01:01:37;;;;;;;;;;;22.40;92.60;22.30;99787.00;;;;346994;28;91244;-90
2022/07/03 01:02:03;;;;;;;;;;;22.40;92.50;22.30;99791.00;;;;343848;28;91688;-90
2022/07/03 01:02:40;;;;;;;;;;;22.40;92.50;22.20;99792.00;;;;345594;28;91056;-91
2022/07/03 01:03:02;;;;;;;;;;;22.40;92.80;22.30;99803.00;;;;343046;28;92182;-90
2022/07/03 01:03:18;;;;;;;;;;;22.30;92.90;22.30;99788.00;;;;346954;28;92139;-90
2022/07/03 01:03:32;;;;;;;;;;;22.40;92.80;22.30;99796.00;;;;344484;28;93855;-90
2022/07/03 01:03:44;;;;;;;;;;;22.30;92.60;22.30;99794.00;;;;341768;28;92012;-90
2022/07/03 01:04:03;;;;;;;;;;;22.30;92.30;22.30;99788.00;;;;344495;28;93815;-90
2022/07/03 01:04:42;;;;;;;;;;;22.30;92.30;22.30;99804.00;;;;341470;28;91990;-90